sensor_id;sensor_type;location;lat;lon;timestamp;P1;durP1;ratioP1;P2;durP2;ratioP2
66870;SDS011;53780;44.998;9.926;2022-07-30T00:02:16;31.40;;;20.23;;
66870;SDS011;53780;44.998;9.926;2022-07-30T00:05:21;35.22;;;19.95;;
66870;SDS011;53780;44.998;9.926;2022-07-30T00:08:25;36.03;;;19.95;;
66870;SDS011;53780;44.998;9.926;2022-07-30T00:11:28;36.33;;;20.48;;
66870;SDS011;53780;44.998;9.926;2022-07-30T00:14:32;40.53;;;23.05;;
66870;SDS011;53780;44.998;9.926;2022-07-30T00:17:40;44.10;;;24.30;;
66870;SDS011;53780;44.998;9.926;2022-07-30T00:20:44;41.97;;;24.17;;
66870;SDS011;53780;44.998;9.926;2022-07-30T00:23:47;40.60;;;24.50;;
66870;SDS011;53780;44.998;9.926;2022-07-30T00:26:51;39.88;;;23.33;;
66870;SDS011;53780;44.998;9.926;2022-07-30T00:29:55;38.63;;;23.65;;
66870;SDS011;53780;44.998;9.926;2022-07-30T00:32:59;38.80;;;23.10;;
66870;SDS011;53780;44.998;9.926;2022-07-30T00:36:04;38.88;;;23.17;;
66870;SDS011;53780;44.998;9.926;2022-07-30T00:39:08;35.90;;;21.13;;
66870;SDS011;53780;44.998;9.926;2022-07-30T00:42:12;37.25;;;22.63;;
66870;SDS011;53780;44.998;9.926;2022-07-30T00:45:17;40.83;;;23.25;;
66870;SDS011;53780;44.998;9.926;2022-07-30T00:48:21;39.07;;;24.03;;
66870;SDS011;53780;44.998;9.926;2022-07-30T00:51:25;39.30;;;24.05;;
66870;SDS011;53780;44.998;9.926;2022-07-30T00:54:28;38.28;;;23.38;;
66870;SDS011;53780;44.998;9.926;2022-07-30T00:57:32;41.67;;;23.55;;
66870;SDS011;53780;44.998;9.926;2022-07-30T01:00:37;38.63;;;22.63;;
66870;SDS011;53780;44.998;9.926;2022-07-30T01:03:40;37.30;;;20.37;;
66870;SDS011;53780;44.998;9.926;2022-07-30T01:06:44;32.00;;;19.08;;
66870;SDS011;53780;44.998;9.926;2022-07-30T01:09:48;30.98;;;19.20;;
66870;SDS011;53780;44.998;9.926;2022-07-30T01:12:51;32.65;;;19.65;;
66870;SDS011;53780;44.998;9.926;2022-07-30T01:15:56;32.65;;;19.50;;
66870;SDS011;53780;44.998;9.926;2022-07-30T01:19:01;33.23;;;19.23;;
66870;SDS011;53780;44.998;9.926;2022-07-30T01:28:35;41.85;;;22.35;;
66870;SDS011;53780;44.998;9.926;2022-07-30T01:31:43;36.58;;;21.45;;
66870;SDS011;53780;44.998;9.926;2022-07-30T01:34:48;36.27;;;21.17;;
66870;SDS011;53780;44.998;9.926;2022-07-30T01:37:54;37.53;;;21.45;;
66870;SDS011;53780;44.998;9.926;2022-07-30T01:40:59;39.30;;;21.40;;
66870;SDS011;53780;44.998;9.926;2022-07-30T01:44:06;38.05;;;21.40;;
66870;SDS011;53780;44.998;9.926;2022-07-30T01:47:12;38.17;;;21.00;;
66870;SDS011;53780;44.998;9.926;2022-07-30T01:50:20;40.50;;;21.93;;
66870;SDS011;53780;44.998;9.926;2022-07-30T01:53:26;37.42;;;22.38;;
66870;SDS011;53780;44.998;9.926;2022-07-30T01:56:33;44.05;;;23.13;;
66870;SDS011;53780;44.998;9.926;2022-07-30T01:59:38;43.83;;;24.52;;
66870;SDS011;53780;44.998;9.926;2022-07-30T02:02:44;48.97;;;26.92;;
66870;SDS011;53780;44.998;9.926;2022-07-30T02:05:52;52.47;;;27.67;;
66870;SDS011;53780;44.998;9.926;2022-07-30T02:09:08;49.83;;;28.33;;
66870;SDS011;53780;44.998;9.926;2022-07-30T02:12:12;56.90;;;29.90;;
66870;SDS011;53780;44.998;9.926;2022-07-30T02:15:46;57.55;;;30.52;;
66870;SDS011;53780;44.998;9.926;2022-07-30T02:18:59;56.08;;;30.38;;
66870;SDS011;53780;44.998;9.926;2022-07-30T02:22:10;56.33;;;30.57;;
66870;SDS011;53780;44.998;9.926;2022-07-30T02:25:19;53.83;;;28.10;;
66870;SDS011;53780;44.998;9.926;2022-07-30T02:28:24;51.33;;;26.85;;
66870;SDS011;53780;44.998;9.926;2022-07-30T02:31:30;52.17;;;26.02;;
66870;SDS011;53780;44.998;9.926;2022-07-30T02:34:36;49.83;;;26.30;;
66870;SDS011;53780;44.998;9.926;2022-07-30T02:37:42;53.07;;;25.73;;
66870;SDS011;53780;44.998;9.926;2022-07-30T02:40:49;49.20;;;25.85;;
66870;SDS011;53780;44.998;9.926;2022-07-30T02:43:54;47.17;;;24.88;;
66870;SDS011;53780;44.998;9.926;2022-07-30T02:46:59;50.13;;;25.52;;
66870;SDS011;53780;44.998;9.926;2022-07-30T02:50:05;47.50;;;22.83;;
66870;SDS011;53780;44.998;9.926;2022-07-30T02:53:11;50.43;;;23.23;;
66870;SDS011;53780;44.998;9.926;2022-07-30T02:56:17;50.53;;;23.35;;
66870;SDS011;53780;44.998;9.926;2022-07-30T02:59:23;50.25;;;23.25;;
66870;SDS011;53780;44.998;9.926;2022-07-30T03:02:29;49.72;;;23.38;;
66870;SDS011;53780;44.998;9.926;2022-07-30T03:05:35;53.90;;;24.83;;
66870;SDS011;53780;44.998;9.926;2022-07-30T03:08:41;54.27;;;23.83;;
66870;SDS011;53780;44.998;9.926;2022-07-30T03:11:48;60.80;;;25.98;;
66870;SDS011;53780;44.998;9.926;2022-07-30T03:14:53;55.83;;;23.85;;
66870;SDS011;53780;44.998;9.926;2022-07-30T03:17:58;53.50;;;23.75;;
66870;SDS011;53780;44.998;9.926;2022-07-30T03:21:04;48.28;;;22.10;;
66870;SDS011;53780;44.998;9.926;2022-07-30T03:24:10;50.60;;;22.67;;
66870;SDS011;53780;44.998;9.926;2022-07-30T03:27:16;51.25;;;23.52;;
66870;SDS011;53780;44.998;9.926;2022-07-30T03:30:21;48.63;;;22.67;;
66870;SDS011;53780;44.998;9.926;2022-07-30T03:33:27;46.63;;;22.00;;
66870;SDS011;53780;44.998;9.926;2022-07-30T03:36:32;46.88;;;22.15;;
66870;SDS011;53780;44.998;9.926;2022-07-30T03:39:37;46.47;;;22.40;;
66870;SDS011;53780;44.998;9.926;2022-07-30T03:42:41;47.53;;;22.42;;
66870;SDS011;53780;44.998;9.926;2022-07-30T03:45:48;46.13;;;22.27;;
66870;SDS011;53780;44.998;9.926;2022-07-30T03:48:56;49.97;;;24.15;;
66870;SDS011;53780;44.998;9.926;2022-07-30T03:52:01;45.80;;;23.27;;
66870;SDS011;53780;44.998;9.926;2022-07-30T03:55:08;47.53;;;22.80;;
66870;SDS011;53780;44.998;9.926;2022-07-30T03:58:25;50.33;;;23.70;;
66870;SDS011;53780;44.998;9.926;2022-07-30T04:01:29;51.58;;;23.92;;
66870;SDS011;53780;44.998;9.926;2022-07-30T04:04:42;49.03;;;24.23;;
66870;SDS011;53780;44.998;9.926;2022-07-30T04:07:46;53.25;;;24.48;;
66870;SDS011;53780;44.998;9.926;2022-07-30T04:10:52;53.63;;;24.27;;
66870;SDS011;53780;44.998;9.926;2022-07-30T04:14:17;57.47;;;25.27;;
66870;SDS011;53780;44.998;9.926;2022-07-30T04:17:37;57.33;;;25.73;;
66870;SDS011;53780;44.998;9.926;2022-07-30T04:20:46;52.35;;;24.70;;
66870;SDS011;53780;44.998;9.926;2022-07-30T04:23:54;52.35;;;24.50;;
66870;SDS011;53780;44.998;9.926;2022-07-30T04:26:59;49.87;;;23.90;;
66870;SDS011;53780;44.998;9.926;2022-07-30T04:30:04;53.97;;;24.00;;
66870;SDS011;53780;44.998;9.926;2022-07-30T04:33:11;52.60;;;24.90;;
66870;SDS011;53780;44.998;9.926;2022-07-30T04:36:17;55.55;;;25.70;;
66870;SDS011;53780;44.998;9.926;2022-07-30T04:39:22;50.70;;;24.10;;
66870;SDS011;53780;44.998;9.926;2022-07-30T04:42:27;58.03;;;27.03;;
66870;SDS011;53780;44.998;9.926;2022-07-30T04:45:41;60.75;;;26.52;;
66870;SDS011;53780;44.998;9.926;2022-07-30T04:48:47;58.15;;;26.45;;
66870;SDS011;53780;44.998;9.926;2022-07-30T04:51:52;60.20;;;26.90;;
66870;SDS011;53780;44.998;9.926;2022-07-30T04:55:01;59.60;;;25.88;;
66870;SDS011;53780;44.998;9.926;2022-07-30T04:58:06;66.17;;;27.33;;
66870;SDS011;53780;44.998;9.926;2022-07-30T05:01:14;70.18;;;28.80;;
66870;SDS011;53780;44.998;9.926;2022-07-30T05:04:22;72.72;;;29.15;;
66870;SDS011;53780;44.998;9.926;2022-07-30T05:07:28;72.53;;;28.77;;
66870;SDS011;53780;44.998;9.926;2022-07-30T05:10:34;68.50;;;28.33;;
66870;SDS011;53780;44.998;9.926;2022-07-30T05:13:41;68.30;;;29.00;;
66870;SDS011;53780;44.998;9.926;2022-07-30T05:16:54;67.38;;;27.92;;
66870;SDS011;53780;44.998;9.926;2022-07-30T05:19:59;65.60;;;28.55;;
66870;SDS011;53780;44.998;9.926;2022-07-30T05:23:04;66.13;;;28.63;;
66870;SDS011;53780;44.998;9.926;2022-07-30T05:26:09;69.68;;;29.42;;
66870;SDS011;53780;44.998;9.926;2022-07-30T05:29:18;70.60;;;29.30;;
66870;SDS011;53780;44.998;9.926;2022-07-30T05:32:26;62.85;;;28.90;;
66870;SDS011;53780;44.998;9.926;2022-07-30T05:35:30;64.95;;;27.90;;
66870;SDS011;53780;44.998;9.926;2022-07-30T05:38:34;60.13;;;27.27;;
66870;SDS011;53780;44.998;9.926;2022-07-30T05:42:01;60.78;;;27.65;;
66870;SDS011;53780;44.998;9.926;2022-07-30T05:45:17;59.17;;;27.50;;
66870;SDS011;53780;44.998;9.926;2022-07-30T05:48:22;54.05;;;25.95;;
66870;SDS011;53780;44.998;9.926;2022-07-30T05:51:26;50.88;;;25.40;;
66870;SDS011;53780;44.998;9.926;2022-07-30T05:54:30;47.88;;;24.40;;
66870;SDS011;53780;44.998;9.926;2022-07-30T05:57:53;44.58;;;23.77;;
66870;SDS011;53780;44.998;9.926;2022-07-30T06:00:57;41.17;;;22.17;;
66870;SDS011;53780;44.998;9.926;2022-07-30T06:04:05;36.67;;;20.25;;
66870;SDS011;53780;44.998;9.926;2022-07-30T06:07:19;34.05;;;19.48;;
66870;SDS011;53780;44.998;9.926;2022-07-30T06:10:24;31.23;;;18.95;;
66870;SDS011;53780;44.998;9.926;2022-07-30T06:13:28;34.90;;;19.33;;
66870;SDS011;53780;44.998;9.926;2022-07-30T06:16:31;33.20;;;18.37;;
66870;SDS011;53780;44.998;9.926;2022-07-30T06:19:35;31.50;;;18.25;;
66870;SDS011;53780;44.998;9.926;2022-07-30T06:22:39;26.48;;;16.42;;
66870;SDS011;53780;44.998;9.926;2022-07-30T06:25:49;27.88;;;16.30;;
66870;SDS011;53780;44.998;9.926;2022-07-30T06:28:53;25.00;;;15.48;;
66870;SDS011;53780;44.998;9.926;2022-07-30T06:32:04;24.67;;;14.97;;
66870;SDS011;53780;44.998;9.926;2022-07-30T06:35:09;23.55;;;14.35;;
66870;SDS011;53780;44.998;9.926;2022-07-30T06:38:13;22.02;;;13.20;;
66870;SDS011;53780;44.998;9.926;2022-07-30T06:41:29;22.05;;;13.32;;
66870;SDS011;53780;44.998;9.926;2022-07-30T06:44:35;19.90;;;13.18;;
66870;SDS011;53780;44.998;9.926;2022-07-30T06:47:39;21.73;;;14.03;;
66870;SDS011;53780;44.998;9.926;2022-07-30T06:50:43;20.63;;;13.73;;
66870;SDS011;53780;44.998;9.926;2022-07-30T06:53:47;19.52;;;12.82;;
66870;SDS011;53780;44.998;9.926;2022-07-30T06:56:51;20.05;;;12.68;;
66870;SDS011;53780;44.998;9.926;2022-07-30T06:59:55;17.80;;;12.50;;
66870;SDS011;53780;44.998;9.926;2022-07-30T07:03:07;19.63;;;12.70;;
66870;SDS011;53780;44.998;9.926;2022-07-30T07:06:13;19.83;;;12.70;;
66870;SDS011;53780;44.998;9.926;2022-07-30T07:09:18;19.15;;;12.60;;
66870;SDS011;53780;44.998;9.926;2022-07-30T07:12:39;20.90;;;11.63;;
66870;SDS011;53780;44.998;9.926;2022-07-30T07:15:44;19.92;;;12.27;;
66870;SDS011;53780;44.998;9.926;2022-07-30T07:18:53;19.87;;;12.63;;
66870;SDS011;53780;44.998;9.926;2022-07-30T07:21:58;16.85;;;11.60;;
66870;SDS011;53780;44.998;9.926;2022-07-30T07:25:02;18.02;;;11.55;;
66870;SDS011;53780;44.998;9.926;2022-07-30T07:28:09;18.55;;;12.02;;
66870;SDS011;53780;44.998;9.926;2022-07-30T07:31:14;20.88;;;13.32;;
66870;SDS011;53780;44.998;9.926;2022-07-30T07:34:18;19.27;;;12.60;;
66870;SDS011;53780;44.998;9.926;2022-07-30T07:37:22;20.20;;;12.43;;
66870;SDS011;53780;44.998;9.926;2022-07-30T07:40:27;20.65;;;13.55;;
66870;SDS011;53780;44.998;9.926;2022-07-30T07:43:33;20.30;;;13.13;;
66870;SDS011;53780;44.998;9.926;2022-07-30T07:46:38;17.73;;;11.80;;
66870;SDS011;53780;44.998;9.926;2022-07-30T07:49:42;19.23;;;11.87;;
66870;SDS011;53780;44.998;9.926;2022-07-30T07:52:47;14.38;;;9.23;;
66870;SDS011;53780;44.998;9.926;2022-07-30T07:55:52;11.98;;;8.82;;
66870;SDS011;53780;44.998;9.926;2022-07-30T07:58:57;14.25;;;8.95;;
66870;SDS011;53780;44.998;9.926;2022-07-30T08:02:02;12.80;;;9.20;;
66870;SDS011;53780;44.998;9.926;2022-07-30T08:05:41;12.57;;;8.57;;
66870;SDS011;53780;44.998;9.926;2022-07-30T08:09:02;13.85;;;8.60;;
66870;SDS011;53780;44.998;9.926;2022-07-30T08:12:25;13.75;;;9.65;;
66870;SDS011;53780;44.998;9.926;2022-07-30T08:15:48;14.25;;;9.68;;
66870;SDS011;53780;44.998;9.926;2022-07-30T08:19:25;16.02;;;9.95;;
66870;SDS011;53780;44.998;9.926;2022-07-30T08:22:47;14.23;;;9.73;;
66870;SDS011;53780;44.998;9.926;2022-07-30T08:25:52;15.32;;;10.68;;
66870;SDS011;53780;44.998;9.926;2022-07-30T08:28:56;14.05;;;10.38;;
66870;SDS011;53780;44.998;9.926;2022-07-30T08:32:00;16.17;;;12.00;;
66870;SDS011;53780;44.998;9.926;2022-07-30T08:35:06;15.60;;;11.60;;
66870;SDS011;53780;44.998;9.926;2022-07-30T08:38:11;19.50;;;12.43;;
66870;SDS011;53780;44.998;9.926;2022-07-30T08:41:18;18.13;;;13.18;;
66870;SDS011;53780;44.998;9.926;2022-07-30T08:44:22;17.38;;;12.82;;
66870;SDS011;53780;44.998;9.926;2022-07-30T08:47:31;15.98;;;12.10;;
66870;SDS011;53780;44.998;9.926;2022-07-30T08:50:48;17.48;;;12.45;;
66870;SDS011;53780;44.998;9.926;2022-07-30T08:54:11;18.53;;;13.70;;
66870;SDS011;53780;44.998;9.926;2022-07-30T08:57:17;16.33;;;12.52;;
66870;SDS011;53780;44.998;9.926;2022-07-30T09:00:21;17.75;;;13.30;;
66870;SDS011;53780;44.998;9.926;2022-07-30T09:03:26;15.38;;;11.85;;
66870;SDS011;53780;44.998;9.926;2022-07-30T09:06:34;15.07;;;11.30;;
66870;SDS011;53780;44.998;9.926;2022-07-30T09:09:41;15.77;;;10.70;;
66870;SDS011;53780;44.998;9.926;2022-07-30T09:12:45;15.05;;;11.32;;
66870;SDS011;53780;44.998;9.926;2022-07-30T09:15:49;17.35;;;12.82;;
66870;SDS011;53780;44.998;9.926;2022-07-30T09:18:54;18.00;;;11.95;;
66870;SDS011;53780;44.998;9.926;2022-07-30T09:21:59;16.85;;;11.68;;
66870;SDS011;53780;44.998;9.926;2022-07-30T09:25:33;15.63;;;11.87;;
66870;SDS011;53780;44.998;9.926;2022-07-30T09:29:16;16.05;;;10.40;;
66870;SDS011;53780;44.998;9.926;2022-07-30T09:32:51;14.00;;;10.25;;
66870;SDS011;53780;44.998;9.926;2022-07-30T09:36:06;16.83;;;12.45;;
66870;SDS011;53780;44.998;9.926;2022-07-30T09:39:52;15.18;;;11.40;;
66870;SDS011;53780;44.998;9.926;2022-07-30T09:43:10;15.80;;;11.27;;
66870;SDS011;53780;44.998;9.926;2022-07-30T09:46:16;14.57;;;11.13;;
66870;SDS011;53780;44.998;9.926;2022-07-30T09:49:22;12.85;;;9.60;;
66870;SDS011;53780;44.998;9.926;2022-07-30T09:52:27;12.70;;;9.65;;
66870;SDS011;53780;44.998;9.926;2022-07-30T09:55:35;10.43;;;7.75;;
66870;SDS011;53780;44.998;9.926;2022-07-30T09:58:39;11.87;;;7.57;;
66870;SDS011;53780;44.998;9.926;2022-07-30T10:01:50;10.10;;;7.18;;
66870;SDS011;53780;44.998;9.926;2022-07-30T10:05:26;10.25;;;7.68;;
66870;SDS011;53780;44.998;9.926;2022-07-30T10:08:38;13.13;;;9.60;;
66870;SDS011;53780;44.998;9.926;2022-07-30T10:11:43;16.08;;;11.57;;
66870;SDS011;53780;44.998;9.926;2022-07-30T10:14:47;12.33;;;8.70;;
66870;SDS011;53780;44.998;9.926;2022-07-30T10:17:55;13.85;;;9.43;;
66870;SDS011;53780;44.998;9.926;2022-07-30T10:21:26;14.80;;;10.48;;
66870;SDS011;53780;44.998;9.926;2022-07-30T10:25:09;12.07;;;7.35;;
66870;SDS011;53780;44.998;9.926;2022-07-30T10:28:32;11.55;;;7.63;;
66870;SDS011;53780;44.998;9.926;2022-07-30T10:31:36;12.90;;;8.87;;
66870;SDS011;53780;44.998;9.926;2022-07-30T10:34:41;11.52;;;7.80;;
66870;SDS011;53780;44.998;9.926;2022-07-30T10:37:47;14.38;;;10.00;;
66870;SDS011;53780;44.998;9.926;2022-07-30T10:40:55;12.93;;;9.30;;
66870;SDS011;53780;44.998;9.926;2022-07-30T10:47:36;13.80;;;9.47;;
66870;SDS011;53780;44.998;9.926;2022-07-30T10:50:54;13.73;;;8.88;;
66870;SDS011;53780;44.998;9.926;2022-07-30T10:53:59;12.80;;;8.50;;
66870;SDS011;53780;44.998;9.926;2022-07-30T10:57:07;12.82;;;8.43;;
66870;SDS011;53780;44.998;9.926;2022-07-30T11:00:24;14.82;;;8.82;;
66870;SDS011;53780;44.998;9.926;2022-07-30T11:03:29;13.17;;;8.23;;
66870;SDS011;53780;44.998;9.926;2022-07-30T11:06:33;12.05;;;8.70;;
66870;SDS011;53780;44.998;9.926;2022-07-30T11:09:37;12.10;;;8.00;;
66870;SDS011;53780;44.998;9.926;2022-07-30T11:15:55;10.48;;;7.15;;
66870;SDS011;53780;44.998;9.926;2022-07-30T11:19:13;9.47;;;5.87;;
66870;SDS011;53780;44.998;9.926;2022-07-30T11:25:40;11.18;;;6.00;;
66870;SDS011;53780;44.998;9.926;2022-07-30T11:28:45;10.02;;;6.63;;
66870;SDS011;53780;44.998;9.926;2022-07-30T11:31:50;10.07;;;5.80;;
66870;SDS011;53780;44.998;9.926;2022-07-30T11:38:17;10.77;;;6.60;;
66870;SDS011;53780;44.998;9.926;2022-07-30T11:41:22;9.23;;;5.80;;
66870;SDS011;53780;44.998;9.926;2022-07-30T11:44:26;9.82;;;6.07;;
66870;SDS011;53780;44.998;9.926;2022-07-30T11:47:32;10.18;;;5.60;;
66870;SDS011;53780;44.998;9.926;2022-07-30T11:50:36;6.97;;;4.80;;
66870;SDS011;53780;44.998;9.926;2022-07-30T11:53:41;9.48;;;4.75;;
66870;SDS011;53780;44.998;9.926;2022-07-30T11:56:53;6.68;;;4.10;;
66870;SDS011;53780;44.998;9.926;2022-07-30T12:00:02;6.90;;;4.63;;
66870;SDS011;53780;44.998;9.926;2022-07-30T12:03:07;6.82;;;4.63;;
66870;SDS011;53780;44.998;9.926;2022-07-30T12:06:15;8.87;;;4.93;;
66870;SDS011;53780;44.998;9.926;2022-07-30T12:09:23;9.23;;;5.40;;
66870;SDS011;53780;44.998;9.926;2022-07-30T12:12:32;8.73;;;5.53;;
66870;SDS011;53780;44.998;9.926;2022-07-30T12:15:37;9.70;;;6.07;;
66870;SDS011;53780;44.998;9.926;2022-07-30T12:18:46;7.65;;;5.50;;
66870;SDS011;53780;44.998;9.926;2022-07-30T12:21:50;7.97;;;5.10;;
66870;SDS011;53780;44.998;9.926;2022-07-30T12:24:54;8.05;;;4.80;;
66870;SDS011;53780;44.998;9.926;2022-07-30T12:27:58;9.57;;;4.80;;
66870;SDS011;53780;44.998;9.926;2022-07-30T12:31:03;7.22;;;4.28;;
66870;SDS011;53780;44.998;9.926;2022-07-30T12:34:24;7.25;;;4.60;;
66870;SDS011;53780;44.998;9.926;2022-07-30T12:37:29;8.90;;;4.80;;
66870;SDS011;53780;44.998;9.926;2022-07-30T12:40:33;6.80;;;4.20;;
66870;SDS011;53780;44.998;9.926;2022-07-30T12:43:53;6.68;;;4.38;;
66870;SDS011;53780;44.998;9.926;2022-07-30T12:46:57;7.32;;;4.38;;
66870;SDS011;53780;44.998;9.926;2022-07-30T12:50:07;8.48;;;4.00;;
66870;SDS011;53780;44.998;9.926;2022-07-30T12:53:22;7.30;;;3.90;;
66870;SDS011;53780;44.998;9.926;2022-07-30T12:56:32;7.07;;;4.47;;
66870;SDS011;53780;44.998;9.926;2022-07-30T12:59:35;5.93;;;3.58;;
66870;SDS011;53780;44.998;9.926;2022-07-30T13:02:40;7.78;;;4.10;;
66870;SDS011;53780;44.998;9.926;2022-07-30T13:05:46;6.05;;;3.83;;
66870;SDS011;53780;44.998;9.926;2022-07-30T13:08:52;8.97;;;3.40;;
66870;SDS011;53780;44.998;9.926;2022-07-30T13:12:00;6.20;;;3.47;;
66870;SDS011;53780;44.998;9.926;2022-07-30T13:15:04;5.80;;;3.75;;
66870;SDS011;53780;44.998;9.926;2022-07-30T13:18:09;6.22;;;3.65;;
66870;SDS011;53780;44.998;9.926;2022-07-30T13:21:13;6.07;;;4.07;;
66870;SDS011;53780;44.998;9.926;2022-07-30T13:24:17;6.43;;;3.93;;
66870;SDS011;53780;44.998;9.926;2022-07-30T13:27:21;5.32;;;3.30;;
66870;SDS011;53780;44.998;9.926;2022-07-30T13:30:25;5.18;;;3.30;;
66870;SDS011;53780;44.998;9.926;2022-07-30T13:33:30;5.60;;;3.50;;
66870;SDS011;53780;44.998;9.926;2022-07-30T13:36:34;5.43;;;3.65;;
66870;SDS011;53780;44.998;9.926;2022-07-30T13:39:38;5.90;;;3.27;;
66870;SDS011;53780;44.998;9.926;2022-07-30T13:42:42;5.70;;;3.50;;
66870;SDS011;53780;44.998;9.926;2022-07-30T13:45:47;7.28;;;3.22;;
66870;SDS011;53780;44.998;9.926;2022-07-30T13:48:51;5.78;;;3.70;;
66870;SDS011;53780;44.998;9.926;2022-07-30T13:51:56;4.50;;;2.80;;
66870;SDS011;53780;44.998;9.926;2022-07-30T13:55:00;6.73;;;3.23;;
66870;SDS011;53780;44.998;9.926;2022-07-30T13:58:04;6.22;;;3.30;;
66870;SDS011;53780;44.998;9.926;2022-07-30T14:01:09;8.57;;;3.28;;
66870;SDS011;53780;44.998;9.926;2022-07-30T14:04:14;7.07;;;3.08;;
66870;SDS011;53780;44.998;9.926;2022-07-30T14:07:17;5.75;;;2.80;;
66870;SDS011;53780;44.998;9.926;2022-07-30T14:10:22;6.00;;;3.10;;
66870;SDS011;53780;44.998;9.926;2022-07-30T14:13:26;4.93;;;2.38;;
66870;SDS011;53780;44.998;9.926;2022-07-30T14:16:30;3.42;;;1.80;;
66870;SDS011;53780;44.998;9.926;2022-07-30T14:19:35;4.47;;;2.70;;
66870;SDS011;53780;44.998;9.926;2022-07-30T14:22:39;4.88;;;2.70;;
66870;SDS011;53780;44.998;9.926;2022-07-30T14:25:44;5.00;;;2.63;;
66870;SDS011;53780;44.998;9.926;2022-07-30T14:28:49;4.97;;;2.63;;
66870;SDS011;53780;44.998;9.926;2022-07-30T14:31:53;4.10;;;1.85;;
66870;SDS011;53780;44.998;9.926;2022-07-30T14:34:58;5.22;;;2.10;;
66870;SDS011;53780;44.998;9.926;2022-07-30T14:38:02;4.53;;;2.33;;
66870;SDS011;53780;44.998;9.926;2022-07-30T14:41:06;4.07;;;2.37;;
66870;SDS011;53780;44.998;9.926;2022-07-30T14:44:11;4.57;;;1.80;;
66870;SDS011;53780;44.998;9.926;2022-07-30T14:47:16;5.22;;;1.90;;
66870;SDS011;53780;44.998;9.926;2022-07-30T14:50:20;4.30;;;1.95;;
66870;SDS011;53780;44.998;9.926;2022-07-30T14:53:25;3.90;;;2.22;;
66870;SDS011;53780;44.998;9.926;2022-07-30T14:56:29;3.70;;;2.03;;
66870;SDS011;53780;44.998;9.926;2022-07-30T14:59:33;3.80;;;2.00;;
66870;SDS011;53780;44.998;9.926;2022-07-30T15:02:37;4.68;;;1.77;;
66870;SDS011;53780;44.998;9.926;2022-07-30T15:05:43;3.65;;;1.60;;
66870;SDS011;53780;44.998;9.926;2022-07-30T15:08:47;4.63;;;1.80;;
66870;SDS011;53780;44.998;9.926;2022-07-30T15:11:51;3.77;;;1.80;;
66870;SDS011;53780;44.998;9.926;2022-07-30T15:14:54;4.95;;;2.25;;
66870;SDS011;53780;44.998;9.926;2022-07-30T15:17:59;4.97;;;2.25;;
66870;SDS011;53780;44.998;9.926;2022-07-30T15:21:04;4.55;;;2.30;;
66870;SDS011;53780;44.998;9.926;2022-07-30T15:24:08;4.47;;;2.38;;
66870;SDS011;53780;44.998;9.926;2022-07-30T15:27:13;3.83;;;2.03;;
66870;SDS011;53780;44.998;9.926;2022-07-30T15:30:17;4.43;;;2.00;;
66870;SDS011;53780;44.998;9.926;2022-07-30T15:33:21;3.70;;;1.80;;
66870;SDS011;53780;44.998;9.926;2022-07-30T15:36:25;4.57;;;1.80;;
66870;SDS011;53780;44.998;9.926;2022-07-30T15:39:30;3.55;;;1.75;;
66870;SDS011;53780;44.998;9.926;2022-07-30T15:42:36;5.10;;;2.20;;
66870;SDS011;53780;44.998;9.926;2022-07-30T15:45:40;3.97;;;1.90;;
66870;SDS011;53780;44.998;9.926;2022-07-30T15:48:46;4.25;;;1.75;;
66870;SDS011;53780;44.998;9.926;2022-07-30T15:51:50;3.78;;;1.70;;
66870;SDS011;53780;44.998;9.926;2022-07-30T15:54:54;4.18;;;1.63;;
66870;SDS011;53780;44.998;9.926;2022-07-30T15:57:59;3.10;;;1.60;;
66870;SDS011;53780;44.998;9.926;2022-07-30T16:01:03;3.65;;;1.60;;
66870;SDS011;53780;44.998;9.926;2022-07-30T16:04:08;3.42;;;1.30;;
66870;SDS011;53780;44.998;9.926;2022-07-30T16:07:12;3.92;;;1.60;;
66870;SDS011;53780;44.998;9.926;2022-07-30T16:10:16;5.10;;;1.73;;
66870;SDS011;53780;44.998;9.926;2022-07-30T16:13:20;4.00;;;1.70;;
66870;SDS011;53780;44.998;9.926;2022-07-30T16:16:24;3.95;;;1.50;;
66870;SDS011;53780;44.998;9.926;2022-07-30T16:19:28;3.38;;;1.50;;
66870;SDS011;53780;44.998;9.926;2022-07-30T16:22:32;6.10;;;2.08;;
66870;SDS011;53780;44.998;9.926;2022-07-30T16:25:36;3.85;;;1.50;;
66870;SDS011;53780;44.998;9.926;2022-07-30T16:28:40;3.33;;;1.60;;
66870;SDS011;53780;44.998;9.926;2022-07-30T16:31:45;3.20;;;1.60;;
66870;SDS011;53780;44.998;9.926;2022-07-30T16:34:49;3.75;;;1.70;;
66870;SDS011;53780;44.998;9.926;2022-07-30T16:37:56;13.27;;;1.80;;
66870;SDS011;53780;44.998;9.926;2022-07-30T16:41:05;5.05;;;1.50;;
66870;SDS011;53780;44.998;9.926;2022-07-30T16:44:09;3.20;;;1.50;;
66870;SDS011;53780;44.998;9.926;2022-07-30T16:47:13;3.35;;;1.50;;
66870;SDS011;53780;44.998;9.926;2022-07-30T16:50:18;3.50;;;1.58;;
66870;SDS011;53780;44.998;9.926;2022-07-30T16:53:22;4.07;;;1.60;;
66870;SDS011;53780;44.998;9.926;2022-07-30T16:56:26;4.40;;;1.80;;
66870;SDS011;53780;44.998;9.926;2022-07-30T16:59:30;3.30;;;1.60;;
66870;SDS011;53780;44.998;9.926;2022-07-30T17:02:34;3.55;;;1.50;;
66870;SDS011;53780;44.998;9.926;2022-07-30T17:05:38;3.83;;;1.23;;
66870;SDS011;53780;44.998;9.926;2022-07-30T17:08:42;3.75;;;1.60;;
66870;SDS011;53780;44.998;9.926;2022-07-30T17:11:47;3.42;;;1.60;;
66870;SDS011;53780;44.998;9.926;2022-07-30T17:14:51;3.30;;;1.50;;
66870;SDS011;53780;44.998;9.926;2022-07-30T17:17:56;3.33;;;1.40;;
66870;SDS011;53780;44.998;9.926;2022-07-30T17:21:00;3.13;;;1.40;;
66870;SDS011;53780;44.998;9.926;2022-07-30T17:24:04;3.65;;;1.52;;
66870;SDS011;53780;44.998;9.926;2022-07-30T17:27:13;5.38;;;1.38;;
66870;SDS011;53780;44.998;9.926;2022-07-30T17:30:16;3.30;;;1.20;;
66870;SDS011;53780;44.998;9.926;2022-07-30T17:33:21;4.13;;;1.00;;
66870;SDS011;53780;44.998;9.926;2022-07-30T17:36:25;3.03;;;1.10;;
66870;SDS011;53780;44.998;9.926;2022-07-30T17:39:28;3.45;;;1.20;;
66870;SDS011;53780;44.998;9.926;2022-07-30T17:42:33;2.90;;;1.20;;
66870;SDS011;53780;44.998;9.926;2022-07-30T17:45:37;3.53;;;1.30;;
66870;SDS011;53780;44.998;9.926;2022-07-30T17:48:40;3.13;;;1.13;;
66870;SDS011;53780;44.998;9.926;2022-07-30T17:51:46;4.05;;;1.30;;
66870;SDS011;53780;44.998;9.926;2022-07-30T17:54:49;3.00;;;1.10;;
66870;SDS011;53780;44.998;9.926;2022-07-30T17:57:53;3.10;;;1.20;;
66870;SDS011;53780;44.998;9.926;2022-07-30T18:00:57;4.07;;;1.30;;
66870;SDS011;53780;44.998;9.926;2022-07-30T18:04:04;4.30;;;1.30;;
66870;SDS011;53780;44.998;9.926;2022-07-30T18:07:08;3.40;;;1.40;;
66870;SDS011;53780;44.998;9.926;2022-07-30T18:10:12;4.63;;;1.70;;
66870;SDS011;53780;44.998;9.926;2022-07-30T18:13:16;17.55;;;11.02;;
66870;SDS011;53780;44.998;9.926;2022-07-30T18:16:21;3.87;;;1.60;;
66870;SDS011;53780;44.998;9.926;2022-07-30T18:19:25;3.33;;;1.40;;
66870;SDS011;53780;44.998;9.926;2022-07-30T18:22:29;3.33;;;1.40;;
66870;SDS011;53780;44.998;9.926;2022-07-30T18:25:33;3.65;;;1.65;;
66870;SDS011;53780;44.998;9.926;2022-07-30T18:28:41;2.95;;;1.30;;
66870;SDS011;53780;44.998;9.926;2022-07-30T18:31:46;2.70;;;1.10;;
66870;SDS011;53780;44.998;9.926;2022-07-30T18:34:50;4.00;;;1.30;;
66870;SDS011;53780;44.998;9.926;2022-07-30T18:37:54;2.90;;;1.10;;
66870;SDS011;53780;44.998;9.926;2022-07-30T18:40:58;3.22;;;1.30;;
66870;SDS011;53780;44.998;9.926;2022-07-30T18:44:03;4.55;;;1.27;;
66870;SDS011;53780;44.998;9.926;2022-07-30T18:47:07;4.03;;;1.30;;
66870;SDS011;53780;44.998;9.926;2022-07-30T18:50:12;2.88;;;1.02;;